« 七尾港開港120周年船艇一般公開 七尾港 2019/9/29 sun | トップページ | 第20回消防・防災フェスティバルinおやべ 小矢部市 2019/10/5 sat »

2019/10/04

定点 富山空港 2019/10/4 fri

台風が温帯低気圧になって日本海を進んでいます。当初、いたち狩りに行こうと思っていましたが、この雨ですから、河原監視に変わりました。

RJNT 032300Z 24010KT 9999 -SHRA FEW010 SCT040 BKN050 24/17 Q1003

20191004_rjnt_00ja134a

ANA313 RJTT-RJNT JA134A A321-272N

RJNT 040000Z 26008KT 9999 -SHRA FEW010 SCT040 BKN050 22/18 Q1004

20191004_rjnt_01ja134a

20191004_rjnt_02ja134a

20191004_rjnt_03ja134a

ANA316 RJNT-RJTT JA134A A321-272N

RJNT 040131Z 23016G27KT 200V260 4000 SHRA BR FEW010 SCT020 BKN030 21/19 Q1005 RMK 1CU010 3CU020 6CU030 A2968

20191004_rjnt_04ja69an

ANA315 RJTT-RJNT JA69AN B737-881

RJNT 040200Z 22011KT 190V250 3500 SHRA BR FEW005 SCT020 BKN030 20/19 Q1005

20191004_rjnt_05b18661

20191004_rjnt_06b18661

CAL170 RCTP-RJNT B-18661 B737-8AL

20191004_rjnt_07ja69an

20191004_rjnt_08ja69an

20191004_rjnt_09ja69an

ANA1181 RJNT-RJCC JA69AN B737-881

RJNT 040300Z 22016KT 4000 -SHRA BR FEW005 SCT020 BKN030 20/19 Q1005

20191004_rjnt_10ja9690

JA9690 AS332L AKF

さすがに今日は、お休みです。

RJNT 040343Z 22015G28KT 5000 -SHRA BR FEW005 SCT010 BKN020 21/19 Q1005 RMK 1CU005 3CU010 5CU020 A2969

20191004_rjnt_11b18661

20191004_rjnt_12b18661

20191004_rjnt_13b18661

20191004_rjnt_14b18661

CAL171 RJNT-RCTP B-18661 B737-8AL

20191004_rjnt_15b18661

すぐ雲の中に消えて行きました。

 

|

« 七尾港開港120周年船艇一般公開 七尾港 2019/9/29 sun | トップページ | 第20回消防・防災フェスティバルinおやべ 小矢部市 2019/10/5 sat »

富山空港」カテゴリの記事

コメント

コメントを書く



(ウェブ上には掲載しません)


コメントは記事投稿者が公開するまで表示されません。



« 七尾港開港120周年船艇一般公開 七尾港 2019/9/29 sun | トップページ | 第20回消防・防災フェスティバルinおやべ 小矢部市 2019/10/5 sat »